General Aviation Weather

Text Reports

Enter one or more of the following location identifiers separated by a space:

Zip Code, Four-Character ICAO or Three-Character IATA airport codes.

METAR - Aviation Routine Weather Report
KMLT - Millinocket, Maine
Updated at 12:53 AM GMT on February 13, 2016 (7:53 PM EST):
METAR KMLT 130053Z AUTO 00000KT 10SM CLR M18/M22 A2998 RMK AO2 SLP168 T11831222
TAF - Terminal Area Forecast
KMLT - Millinocket, Maine
Updated at 12:53 AM GMT on February 13, 2016 (7:53 PM EST):
No TAF is currently available for this location.
Decoded:
No decoded TAF is available.
PIREP - Pilot Weather Report
KMLT - Millinocket, Maine
Updated at 12:53 AM GMT on February 13, 2016 (7:53 PM EST):
No PIREP is currently available for this location.
AIRMET - Airmens Meteorological Information
KMLT - Millinocket, Maine
Updated at 12:53 AM GMT on February 13, 2016 (7:53 PM EST):
No AIRMET is currently available for this location.
SIGMET - Significant Meteorological Information
KMLT - Millinocket, Maine
Updated at 12:53 AM GMT on February 13, 2016 (7:53 PM EST):
No SIGMET is currently available for this location.
NOTAM - Notice to Airmen
KMLT - Millinocket, Maine
Updated at 12:53 AM GMT on February 13, 2016 (7:53 PM EST):
No NOTAM is currently available for this location.
Forecast Area
KMLT - Millinocket, Maine
Updated at 12:53 AM GMT on February 13, 2016 (7:53 PM EST):
No NOTAM is currently available for this location.
Aviation Weather Maps